| time (UTC) | temp F | wind direction | speed knots | gust knots | rain 1hr in | rain 24hr in | rain mn in | humidity % | barometer mb |
| 20260503210555 | 62 | 167 | 6.1 | 17.4 | 0.00 | 0.00 | 0.00 | 43 | 1007.5 |
| 20260503210103 | 61 | 184 | 5.2 | 15.6 | 0.00 | 0.00 | 0.00 | 45 | 1007.7 |
| 20260503205559 | 62 | 184 | 5.2 | 17.4 | 0.00 | 0.00 | 0.00 | 44 | 1007.6 |
| 20260503205055 | 61 | 188 | 5.2 | 17.4 | 0.00 | 0.00 | 0.00 | 45 | 1007.7 |
| 20260503204559 | 61 | 174 | 4.3 | 8.7 | 0.00 | 0.00 | 0.00 | 44 | 1007.7 |
| 20260503204055 | 61 | 209 | 2.6 | 11.3 | 0.00 | 0.00 | 0.00 | 45 | 1007.8 |
| 20260503203557 | 61 | 96 | 4.3 | 16.5 | 0.00 | 0.00 | 0.00 | 44 | 1007.8 |
| 20260503203100 | 62 | 215 | 5.2 | 16.5 | 0.00 | 0.00 | 0.00 | 44 | 1007.9 |
| 20260503202555 | 63 | 196 | 4.3 | 13.9 | 0.00 | 0.00 | 0.00 | 43 | 1007.8 |
| 20260503202055 | 62 | 236 | 4.3 | 24.3 | 0.00 | 0.00 | 0.00 | 44 | 1008.0 |
| 20260503201559 | 62 | 61 | 5.2 | 24.3 | 0.00 | 0.00 | 0.00 | 42 | 1008.1 |
| 20260503201055 | 62 | 190 | 8.7 | 17.4 | 0.00 | 0.00 | 0.00 | 43 | 1008.1 |
| 20260503200554 | 62 | 184 | 6.1 | 16.5 | 0.00 | 0.00 | 0.00 | 44 | 1008.0 |
| 20260503200101 | 61 | 180 | 6.1 | 15.6 | 0.00 | 0.00 | 0.00 | 44 | 1008.1 |
| 20260503195600 | 62 | 190 | 3.5 | 16.5 | 0.00 | 0.00 | 0.00 | 44 | 1008.2 |
| 20260503195055 | 62 | 224 | 3.5 | 16.5 | 0.00 | 0.00 | 0.00 | 43 | 1008.1 |
| 20260503194604 | 62 | 281 | 5.2 | 13.9 | 0.00 | 0.00 | 0.00 | 46 | 1008.2 |
| 20260503194054 | 62 | 177 | 4.3 | 15.6 | 0.00 | 0.00 | 0.00 | 44 | 1008.4 |
| 20260503193555 | 61 | 186 | 6.1 | 17.4 | 0.00 | 0.00 | 0.00 | 43 | 1008.3 |
| 20260503193059 | 61 | 147 | 6.1 | 17.4 | 0.00 | 0.00 | 0.00 | 44 | 1008.5 |
| 20260503192556 | 62 | 182 | 6.1 | 16.5 | 0.00 | 0.00 | 0.00 | 43 | 1008.5 |
| 20260503192055 | 61 | 182 | 7.0 | 17.4 | 0.00 | 0.00 | 0.00 | 43 | 1008.6 |
| 20260503191600 | 62 | 175 | 7.0 | 17.4 | 0.00 | 0.00 | 0.00 | 42 | 1008.6 |
| 20260503191100 | 61 | 162 | 6.1 | 15.6 | 0.00 | 0.00 | 0.00 | 43 | 1008.9 |
| 20260503190559 | 61 | 221 | 5.2 | 15.6 | 0.00 | 0.00 | 0.00 | 46 | 1009.0 |
| 20260503190055 | 61 | 347 | 6.1 | 13.0 | 0.00 | 0.00 | 0.00 | 42 | 1009.0 |
| 20260503185554 | 61 | 261 | 5.2 | 13.0 | 0.00 | 0.00 | 0.00 | 44 | 1009.2 |
| 20260503185101 | 61 | 234 | 6.1 | 13.9 | 0.00 | 0.00 | 0.00 | 43 | 1009.1 |
| 20260503184559 | 62 | 261 | 6.1 | 16.5 | 0.00 | 0.00 | 0.00 | 42 | 1009.2 |
| 20260503184059 | 62 | 180 | 7.8 | 16.5 | 0.00 | 0.00 | 0.00 | 42 | 1009.2 |
| 20260503183558 | 62 | 207 | 5.2 | 13.9 | 0.00 | 0.00 | 0.00 | 44 | 1009.3 |
| 20260503183058 | 62 | 257 | 4.3 | 13.0 | 0.00 | 0.00 | 0.00 | 41 | 1009.4 |
| 20260503182554 | 61 | 244 | 6.1 | 15.6 | 0.00 | 0.00 | 0.00 | 46 | 1009.5 |
| 20260503182054 | 61 | 192 | 6.1 | 15.6 | 0.00 | 0.00 | 0.00 | 42 | 1009.5 |
| 20260503181600 | 62 | 167 | 6.1 | 18.2 | 0.00 | 0.00 | 0.00 | 43 | 1009.5 |
| 20260503181054 | 61 | 186 | 7.8 | 18.2 | 0.00 | 0.00 | 0.00 | 42 | 1009.5 |
| 20260503180557 | 62 | 169 | 6.1 | 20.0 | 0.00 | 0.00 | 0.00 | 41 | 1009.7 |
| 20260503175555 | 61 | 137 | 7.0 | 20.0 | 0.00 | 0.00 | 0.00 | 41 | 1009.8 |
| 20260503175055 | 62 | 249 | 3.5 | 11.3 | 0.00 | 0.00 | 0.00 | 42 | 1010.0 |
| 20260503174559 | 62 | 63 | 5.2 | 12.2 | 0.00 | 0.00 | 0.00 | 42 | 1009.8 |
| 20260503174055 | 62 | 269 | 3.5 | 15.6 | 0.00 | 0.00 | 0.00 | 41 | 1010.0 |
| 20260503173558 | 61 | 333 | 5.2 | 15.6 | 0.00 | 0.00 | 0.00 | 41 | 1010.2 |
| 20260503173110 | 59 | 210 | 5.2 | 13.0 | 0.00 | 0.00 | 0.00 | 43 | 1010.2 |
| 20260503172554 | 59 | 184 | 3.5 | 13.0 | 0.00 | 0.00 | 0.00 | 46 | 1010.2 |
| 20260503172057 | 59 | 264 | 4.3 | 12.2 | 0.00 | 0.00 | 0.00 | 46 | 1010.4 |
| 20260503171559 | 59 | 188 | 3.5 | 17.4 | 0.00 | 0.00 | 0.00 | 45 | 1010.4 |
| 20260503171054 | 59 | 217 | 4.3 | 17.4 | 0.00 | 0.00 | 0.00 | 45 | 1010.4 |
| 20260503170558 | 60 | 182 | 4.3 | 14.8 | 0.00 | 0.00 | 0.00 | 44 | 1010.5 |
| 20260503150557 | 54 | 340 | 2.6 | 11.3 | 0.00 | 0.00 | 0.00 | 49 | 1011.6 |
| 20260503131054 | 50 | 240 | 0.9 | 7.0 | 0.00 | 0.00 | 0.00 | 56 | 1011.9 |
| 20260503130601 | 50 | 273 | 0.9 | 10.4 | 0.00 | 0.00 | 0.00 | 58 | 1011.9 |
| 20260503110557 | 37 | 128 | 1.7 | 7.0 | 0.00 | 0.00 | 0.00 | 70 | 1012.0 |
| 20260503110109 | 37 | 165 | 1.7 | 4.3 | 0.00 | 0.00 | 0.00 | 69 | 1012.0 |
| 20260503081558 | 36 | 168 | 0.0 | 3.5 | 0.00 | 0.00 | 0.00 | 69 | 1012.8 |
| 20260503081055 | 36 | 168 | 0.9 | 4.3 | 0.00 | 0.00 | 0.00 | 69 | 1012.9 |
| 20260503080555 | 35 | 0 | 0.0 | 4.3 | 0.00 | 0.00 | 0.00 | 71 | 1012.8 |
| 20260503072556 | 36 | 169 | 0.0 | 4.3 | 0.00 | 0.00 | 0.00 | 70 | 1012.9 |
| 20260503072055 | 36 | 169 | 0.9 | 4.3 | 0.00 | 0.00 | 0.00 | 67 | 1012.9 |
| 20260503071613 | 36 | 0 | 0.0 | 0.0 | 0.00 | 0.00 | 0.00 | 68 | 1013.0 |
| 20260503071055 | 36 | 0 | 0.0 | 0.0 | 0.00 | 0.00 | 0.00 | 70 | 1013.0 |
| 20260503070558 | 35 | 0 | 0.0 | 0.0 | 0.00 | 0.00 | 0.00 | 72 | 1013.1 |
| 20260503060116 | 34 | 0 | 0.0 | 0.0 | 0.00 | 0.00 | 0.00 | 78 | 1013.5 |
| 20260503055055 | 33 | 0 | 0.0 | 0.0 | 0.00 | 0.00 | 0.00 | 78 | 1013.6 |
| 20260503054601 | 33 | 0 | 0.0 | 0.0 | 0.00 | 0.00 | 0.00 | 78 | 1013.6 |
| 20260503054058 | 33 | 0 | 0.0 | 0.0 | 0.00 | 0.00 | 0.00 | 78 | 1013.7 |
| 20260503053557 | 33 | 0 | 0.0 | 0.0 | 0.00 | 0.00 | 0.00 | 78 | 1013.7 |
| 20260503053055 | 34 | 0 | 0.0 | 0.0 | 0.00 | 0.00 | 0.00 | 78 | 1013.7 |
| 20260503052555 | 34 | 0 | 0.0 | 0.0 | 0.00 | 0.00 | 0.00 | 78 | 1013.7 |
| 20260503052054 | 34 | 0 | 0.0 | 0.0 | 0.00 | 0.00 | 0.00 | 77 | 1013.7 |
| 20260503051555 | 34 | 0 | 0.0 | 0.0 | 0.00 | 0.00 | 0.00 | 76 | 1013.8 |
| 20260503051059 | 34 | 0 | 0.0 | 0.0 | 0.00 | 0.00 | 0.00 | 75 | 1013.8 |
| 20260503050555 | 34 | 0 | 0.0 | 0.0 | 0.00 | 0.00 | 0.00 | 75 | 1013.8 |
| 20260503050055 | 34 | 0 | 0.0 | 0.0 | 0.00 | 0.00 | 0.00 | 76 | 1013.9 |
| 20260503045555 | 34 | 0 | 0.0 | 0.0 | 0.00 | 0.00 | 0.00 | 76 | 1013.9 |
| 20260503045054 | 35 | 0 | 0.0 | 0.0 | 0.00 | 0.00 | 0.00 | 76 | 1013.9 |
| 20260503044558 | 35 | 0 | 0.0 | 0.0 | 0.00 | 0.00 | 0.00 | 75 | 1013.8 |
| 20260503044058 | 35 | 0 | 0.0 | 0.0 | 0.00 | 0.00 | 0.00 | 75 | 1013.8 |
| 20260503043554 | 35 | 0 | 0.0 | 0.0 | 0.00 | 0.00 | 0.00 | 75 | 1013.8 |
| 20260503043103 | 35 | 0 | 0.0 | 0.0 | 0.00 | 0.00 | 0.00 | 75 | 1013.8 |
| 20260503042557 | 35 | 0 | 0.0 | 0.0 | 0.00 | 0.00 | 0.00 | 75 | 1013.8 |
| 20260503042057 | 35 | 0 | 0.0 | 0.0 | 0.00 | 0.00 | 0.00 | 74 | 1013.9 |
| 20260503041557 | 35 | 0 | 0.0 | 0.0 | 0.00 | 0.00 | 0.00 | 76 | 1013.9 |
| 20260503041058 | 35 | 0 | 0.0 | 0.0 | 0.00 | 0.00 | 0.00 | 77 | 1014.0 |
| 20260503040559 | 35 | 0 | 0.0 | 0.0 | 0.00 | 0.00 | 0.00 | 78 | 1014.0 |
| 20260503040114 | 35 | 0 | 0.0 | 0.0 | 0.00 | 0.00 | 0.00 | 78 | 1014.1 |
| 20260503035555 | 35 | 0 | 0.0 | 0.0 | 0.00 | 0.00 | 0.00 | 78 | 1014.1 |
| 20260503035055 | 36 | 0 | 0.0 | 0.0 | 0.00 | 0.00 | 0.00 | 76 | 1014.1 |
| 20260503034559 | 36 | 0 | 0.0 | 0.0 | 0.00 | 0.00 | 0.00 | 77 | 1014.2 |
| 20260503034055 | 36 | 0 | 0.0 | 0.0 | 0.00 | 0.00 | 0.00 | 77 | 1014.1 |
| 20260503033554 | 36 | 0 | 0.0 | 0.0 | 0.00 | 0.00 | 0.00 | 77 | 1014.1 |
| 20260503033058 | 36 | 0 | 0.0 | 0.0 | 0.00 | 0.00 | 0.00 | 77 | 1014.1 |
| 20260503032558 | 36 | 0 | 0.0 | 0.0 | 0.00 | 0.00 | 0.00 | 76 | 1014.2 |
| 20260503032058 | 36 | 0 | 0.0 | 0.0 | 0.00 | 0.00 | 0.00 | 75 | 1014.2 |
| 20260503031605 | 36 | 0 | 0.0 | 0.0 | 0.00 | 0.00 | 0.00 | 76 | 1014.3 |
| 20260503031058 | 37 | 0 | 0.0 | 0.0 | 0.00 | 0.00 | 0.00 | 76 | 1014.2 |
| 20260503030558 | 37 | 0 | 0.0 | 0.0 | 0.00 | 0.00 | 0.00 | 75 | 1014.2 |
| 20260503030058 | 37 | 0 | 0.0 | 0.0 | 0.00 | 0.00 | 0.00 | 74 | 1014.3 |
| 20260503025559 | 37 | 0 | 0.0 | 0.0 | 0.00 | 0.00 | 0.00 | 73 | 1014.3 |
| 20260503025055 | 38 | 0 | 0.0 | 1.7 | 0.00 | 0.00 | 0.00 | 72 | 1014.3 |
| 20260503024554 | 38 | 0 | 0.0 | 1.7 | 0.00 | 0.00 | 0.00 | 73 | 1014.3 |
| 20260503024057 | 38 | 163 | 0.0 | 1.7 | 0.00 | 0.00 | 0.00 | 70 | 1014.3 |
| 20260503023555 | 39 | 0 | 0.0 | 1.7 | 0.00 | 0.00 | 0.00 | 68 | 1014.4 |
| 20260503023102 | 39 | 0 | 0.0 | 2.6 | 0.00 | 0.00 | 0.00 | 68 | 1014.3 |
| 20260503022555 | 39 | 165 | 0.0 | 3.5 | 0.00 | 0.00 | 0.00 | 67 | 1014.3 |
| 20260503022056 | 39 | 0 | 0.0 | 3.5 | 0.00 | 0.00 | 0.00 | 68 | 1014.4 |
| 20260503021603 | 39 | 0 | 0.0 | 1.7 | 0.00 | 0.00 | 0.00 | 67 | 1014.3 |
| 20260503021055 | 39 | 0 | 0.0 | 0.9 | 0.00 | 0.00 | 0.00 | 68 | 1014.4 |
| 20260503020555 | 39 | 0 | 0.0 | 1.7 | 0.00 | 0.00 | 0.00 | 66 | 1014.3 |
| 20260503020059 | 39 | 0 | 0.0 | 2.6 | 0.00 | 0.00 | 0.00 | 65 | 1014.2 |
| 20260503015556 | 40 | 182 | 0.0 | 2.6 | 0.00 | 0.00 | 0.00 | 64 | 1014.2 |
| 20260503015054 | 40 | 0 | 0.0 | 1.7 | 0.00 | 0.00 | 0.00 | 64 | 1014.2 |
| 20260503014610 | 40 | 205 | 0.0 | 1.7 | 0.00 | 0.00 | 0.00 | 63 | 1014.1 |
| 20260503014054 | 40 | 0 | 0.0 | 0.9 | 0.00 | 0.00 | 0.00 | 64 | 1014.1 |
| 20260503013554 | 40 | 0 | 0.0 | 0.9 | 0.00 | 0.00 | 0.00 | 64 | 1014.1 |
| 20260503013059 | 41 | 0 | 0.0 | 0.9 | 0.00 | 0.00 | 0.00 | 62 | 1014.1 |
| 20260503012555 | 41 | 0 | 0.0 | 0.0 | 0.00 | 0.00 | 0.00 | 61 | 1014.1 |
| 20260503012053 | 41 | 0 | 0.0 | 0.9 | 0.00 | 0.00 | 0.00 | 64 | 1014.1 |
| 20260503011600 | 42 | 0 | 0.0 | 1.7 | 0.00 | 0.00 | 0.00 | 63 | 1014.0 |
| 20260503011055 | 42 | 0 | 0.0 | 1.7 | 0.00 | 0.00 | 0.00 | 59 | 1014.0 |
| 20260503010555 | 43 | 0 | 0.0 | 0.0 | 0.00 | 0.00 | 0.00 | 58 | 1014.0 |
| 20260503010059 | 42 | 0 | 0.0 | 0.0 | 0.00 | 0.00 | 0.00 | 58 | 1014.0 |
| 20260503005555 | 42 | 0 | 0.0 | 0.0 | 0.00 | 0.00 | 0.00 | 58 | 1013.9 |
| 20260503005055 | 43 | 0 | 0.0 | 0.0 | 0.00 | 0.00 | 0.00 | 57 | 1013.9 |
| 20260503004555 | 43 | 0 | 0.0 | 0.0 | 0.00 | 0.00 | 0.00 | 58 | 1013.8 |
| 20260503004057 | 43 | 0 | 0.0 | 0.0 | 0.00 | 0.00 | 0.00 | 58 | 1013.9 |
| 20260503003554 | 44 | 0 | 0.0 | 0.0 | 0.00 | 0.00 | 0.00 | 57 | 1013.8 |
| 20260503003054 | 44 | 0 | 0.0 | 0.0 | 0.00 | 0.00 | 0.00 | 61 | 1013.9 |
| 20260503002555 | 44 | 0 | 0.0 | 0.0 | 0.00 | 0.00 | 0.00 | 60 | 1013.9 |
| 20260503002055 | 44 | 0 | 0.0 | 0.0 | 0.00 | 0.00 | 0.00 | 59 | 1013.8 |
| 20260503001606 | 44 | 0 | 0.0 | 0.0 | 0.00 | 0.00 | 0.00 | 58 | 1013.7 |
| 20260503001054 | 45 | 0 | 0.0 | 0.0 | 0.00 | 0.00 | 0.00 | 56 | 1013.8 |
| 20260503000559 | 44 | 0 | 0.0 | 0.0 | 0.00 | 0.00 | 0.00 | 60 | 1013.7 |
| 20260503000054 | 45 | 0 | 0.0 | 0.0 | 0.00 | 0.00 | 0.00 | 58 | 1013.7 |
| 20260502235554 | 46 | 0 | 0.0 | 3.5 | 0.00 | 0.00 | 0.00 | 56 | 1013.7 |
| 20260502235054 | 46 | 0 | 0.0 | 3.5 | 0.00 | 0.00 | 0.00 | 56 | 1013.7 |
| 20260502234558 | 46 | 331 | 0.0 | 3.5 | 0.00 | 0.00 | 0.00 | 55 | 1013.7 |
| 20260502234055 | 46 | 0 | 0.0 | 5.2 | 0.00 | 0.00 | 0.00 | 58 | 1013.7 |
| 20260502233555 | 46 | 0 | 0.9 | 5.2 | 0.00 | 0.00 | 0.00 | 54 | 1013.7 |
| 20260502233054 | 46 | 29 | 0.0 | 3.5 | 0.00 | 0.00 | 0.00 | 55 | 1013.8 |
| 20260502232557 | 46 | 17 | 0.0 | 3.5 | 0.00 | 0.00 | 0.00 | 54 | 1013.9 |
| 20260502232054 | 46 | 352 | 0.9 | 3.5 | 0.00 | 0.00 | 0.00 | 54 | 1013.9 |
| 20260502231557 | 46 | 360 | 0.9 | 3.5 | 0.00 | 0.00 | 0.00 | 54 | 1013.9 |
| 20260502231055 | 46 | 360 | 0.0 | 3.5 | 0.00 | 0.00 | 0.00 | 53 | 1013.9 |
| 20260502230555 | 46 | 317 | 0.9 | 4.3 | 0.00 | 0.00 | 0.00 | 52 | 1013.9 |
| 20260502230058 | 46 | 346 | 0.9 | 4.3 | 0.00 | 0.00 | 0.00 | 54 | 1014.0 |
| 20260502225554 | 46 | 280 | 0.9 | 5.2 | 0.00 | 0.00 | 0.00 | 53 | 1014.0 |
| 20260502225054 | 46 | 0 | 0.9 | 5.2 | 0.00 | 0.00 | 0.00 | 52 | 1014.0 |
| 20260502224604 | 46 | 329 | 0.9 | 4.3 | 0.00 | 0.00 | 0.00 | 52 | 1014.0 |
| 20260502224054 | 46 | 290 | 0.0 | 6.1 | 0.00 | 0.00 | 0.00 | 53 | 1014.1 |
| 20260502223554 | 46 | 333 | 1.7 | 6.1 | 0.00 | 0.00 | 0.00 | 51 | 1014.1 |
| 20260502223054 | 46 | 258 | 1.7 | 6.1 | 0.00 | 0.00 | 0.00 | 51 | 1014.1 |
| 20260502222553 | 46 | 282 | 0.9 | 3.5 | 0.00 | 0.00 | 0.00 | 52 | 1014.1 |
| 20260502222054 | 47 | 300 | 0.9 | 4.3 | 0.00 | 0.00 | 0.00 | 50 | 1014.1 |
| 20260502221553 | 47 | 283 | 0.9 | 4.3 | 0.00 | 0.00 | 0.00 | 50 | 1014.1 |
| 20260502221055 | 47 | 293 | 0.9 | 4.3 | 0.00 | 0.00 | 0.00 | 50 | 1014.1 |
| 20260502220555 | 47 | 0 | 0.0 | 4.3 | 0.00 | 0.00 | 0.00 | 52 | 1014.0 |
| 20260502220054 | 47 | 289 | 0.9 | 6.1 | 0.00 | 0.00 | 0.00 | 51 | 1014.1 |
| 20260502215555 | 47 | 306 | 0.9 | 6.1 | 0.00 | 0.00 | 0.00 | 53 | 1013.9 |
| 20260502215054 | 47 | 352 | 1.7 | 7.0 | 0.00 | 0.00 | 0.00 | 51 | 1013.9 |
| 20260502214555 | 48 | 348 | 0.9 | 7.0 | 0.00 | 0.00 | 0.00 | 52 | 1013.9 |
| 20260502214054 | 47 | 286 | 0.9 | 4.3 | 0.00 | 0.00 | 0.00 | 51 | 1013.9 |
| 20260502213554 | 47 | 290 | 0.9 | 4.3 | 0.00 | 0.00 | 0.00 | 51 | 1013.9 |
| 20260502213100 | 47 | 297 | 1.7 | 6.1 | 0.00 | 0.00 | 0.00 | 51 | 1013.9 |
| 20260502212554 | 47 | 340 | 1.7 | 7.0 | 0.00 | 0.00 | 0.00 | 50 | 1013.9 |
| 20260502212055 | 47 | 272 | 0.9 | 7.0 | 0.00 | 0.00 | 0.00 | 49 | 1013.9 |
| 20260502211603 | 47 | 242 | 1.7 | 7.0 | 0.00 | 0.00 | 0.00 | 50 | 1013.9 |
| 20260502211057 | 48 | 0 | 1.7 | 7.0 | 0.00 | 0.00 | 0.00 | 49 | 1013.9 |